Time;durP1;ratioP1;P1;durP2;ratioP2;P2;SDS_P1;SDS_P2;PMS_P1;PMS_P2;Temp;Humidity;BMP_temperature;BMP_pressure;BME280_temperature;BME280_humidity;BME280_pressure;Samples;Min_cycle;Max_cycle;Signal;HPM_P1;HPM_P2
2022/04/03 00:00:43;;;;;;;;;32.00;27.00;;;;;;;;5034647;28;11647;-77
2022/04/03 00:03:10;;;;;;;;;24.25;19.00;;;;;;;;5033524;28;12377;-78
2022/04/03 00:05:41;;;;;;;;;19.50;19.25;;;;;;;;5031246;28;11622;-78
2022/04/03 00:08:10;;;;;;;;;23.25;23.25;;;;;;;;5034037;28;11673;-77
2022/04/03 00:10:39;;;;;;;;;40.67;33.67;;;;;;;;5029843;28;11582;-77
2022/04/03 00:13:07;;;;;;;;;26.50;25.00;;;;;;;;5033548;28;11715;-77
2022/04/03 00:15:38;;;;;;;;;31.00;25.00;;;;;;;;5031568;28;11614;-77
2022/04/03 00:18:07;;;;;;;;;14.50;14.50;;;;;;;;5032735;28;12403;-76
2022/04/03 00:20:36;;;;;;;;;29.25;25.00;;;;;;;;5060367;28;11721;-77
2022/04/03 00:23:03;;;;;;;;;24.25;23.75;;;;;;;;5031862;28;11586;-77
2022/04/03 00:25:30;;;;;;;;;22.00;19.75;;;;;;;;5034316;28;11630;-77
2022/04/03 00:27:57;;;;;;;;;23.50;23.50;;;;;;;;5035380;28;11601;-77
2022/04/03 00:30:25;;;;;;;;;31.50;30.25;;;;;;;;5037691;28;11532;-77
2022/04/03 00:32:52;;;;;;;;;31.00;28.25;;;;;;;;5037823;28;11582;-77
2022/04/03 00:35:21;;;;;;;;;30.75;28.50;;;;;;;;5035396;28;11699;-78
2022/04/03 00:37:48;;;;;;;;;34.00;31.50;;;;;;;;5041266;28;11605;-78
2022/04/03 00:40:16;;;;;;;;;25.25;23.00;;;;;;;;5028069;28;11597;-77
2022/04/03 00:42:43;;;;;;;;;30.50;29.50;;;;;;;;5031068;28;11564;-77
2022/04/03 00:45:11;;;;;;;;;33.75;32.25;;;;;;;;5031744;28;11578;-77
2022/04/03 00:47:39;;;;;;;;;23.25;19.50;;;;;;;;5035717;28;11703;-77
2022/04/03 00:50:08;;;;;;;;;24.75;24.75;;;;;;;;5031984;28;11555;-77
2022/04/03 00:52:36;;;;;;;;;17.50;15.50;;;;;;;;5037402;28;11645;-77
2022/04/03 00:55:04;;;;;;;;;17.00;17.00;;;;;;;;5040285;28;12258;-77
2022/04/03 00:57:32;;;;;;;;;18.00;17.25;;;;;;;;5034395;28;11558;-77
2022/04/03 00:59:59;;;;;;;;;15.00;15.00;;;;;;;;5030308;28;11628;-77
2022/04/03 01:02:27;;;;;;;;;28.00;27.00;;;;;;;;5037102;28;11495;-77
2022/04/03 01:04:54;;;;;;;;;32.50;30.00;;;;;;;;5037001;28;11555;-77
2022/04/03 01:07:21;;;;;;;;;26.50;18.50;;;;;;;;5037378;28;11730;-77
2022/04/03 01:09:51;;;;;;;;;41.67;36.67;;;;;;;;5040876;28;11588;-77
2022/04/03 01:12:19;;;;;;;;;27.25;26.00;;;;;;;;5023317;28;11740;-78
2022/04/03 01:14:46;;;;;;;;;19.00;19.00;;;;;;;;5037514;28;11606;-77
2022/04/03 01:17:14;;;;;;;;;15.25;15.25;;;;;;;;5045212;28;12399;-77
2022/04/03 01:19:42;;;;;;;;;15.25;15.25;;;;;;;;5041752;28;11560;-77
2022/04/03 01:22:10;;;;;;;;;21.25;15.75;;;;;;;;5037621;28;11577;-77
2022/04/03 01:24:37;;;;;;;;;14.75;14.75;;;;;;;;5039681;28;11552;-78
2022/04/03 01:27:07;;;;;;;;;24.25;21.50;;;;;;;;5037863;28;11556;-78
2022/04/03 01:29:34;;;;;;;;;18.00;15.50;;;;;;;;5038806;28;11605;-77
2022/04/03 01:32:01;;;;;;;;;19.75;17.75;;;;;;;;5033122;28;11551;-77
2022/04/03 01:34:30;;;;;;;;;13.25;11.25;;;;;;;;5042803;28;12492;-77
2022/04/03 01:36:57;;;;;;;;;14.50;11.75;;;;;;;;5035109;28;11555;-77
2022/04/03 01:39:25;;;;;;;;;11.50;11.50;;;;;;;;5044261;28;11638;-77
2022/04/03 01:41:52;;;;;;;;;15.00;11.50;;;;;;;;5023756;28;11693;-78
2022/04/03 01:44:22;;;;;;;;;12.75;10.50;;;;;;;;5040847;28;11557;-77
2022/04/03 01:46:49;;;;;;;;;20.25;20.25;;;;;;;;5041263;28;12467;-78
2022/04/03 01:49:17;;;;;;;;;13.00;13.00;;;;;;;;5031547;28;11558;-78
2022/04/03 01:51:45;;;;;;;;;0.00;0.00;;;;;;;;5033439;28;13070;-76
2022/04/03 01:54:12;;;;;;;;;16.75;15.00;;;;;;;;5040253;28;11538;-77
2022/04/03 01:56:40;;;;;;;;;12.00;10.50;;;;;;;;5041574;28;11663;-77
2022/04/03 01:59:08;;;;;;;;;10.00;10.00;;;;;;;;5034892;28;11660;-77
2022/04/03 02:01:37;;;;;;;;;16.50;12.25;;;;;;;;5036923;28;11526;-77
2022/04/03 02:04:05;;;;;;;;;11.50;11.50;;;;;;;;5041064;28;11533;-77
2022/04/03 02:06:32;;;;;;;;;13.50;10.75;;;;;;;;5038808;28;11551;-77
2022/04/03 02:09:01;;;;;;;;;12.00;12.00;;;;;;;;5041002;28;11544;-77
2022/04/03 02:11:29;;;;;;;;;19.00;19.00;;;;;;;;5029490;28;12052;-77
2022/04/03 02:13:56;;;;;;;;;14.25;12.00;;;;;;;;5040023;28;11617;-77
2022/04/03 02:16:24;;;;;;;;;10.75;9.75;;;;;;;;5042540;28;12358;-77
2022/04/03 02:18:53;;;;;;;;;13.75;11.50;;;;;;;;5035211;28;11544;-77
2022/04/03 02:21:20;;;;;;;;;19.50;17.25;;;;;;;;5027993;28;11530;-77
2022/04/03 02:23:47;;;;;;;;;16.00;11.50;;;;;;;;5038567;28;11621;-77
2022/04/03 02:26:15;;;;;;;;;11.00;5.00;;;;;;;;5042629;28;11584;-77
2022/04/03 02:28:42;;;;;;;;;18.50;14.25;;;;;;;;5026250;28;11546;-79
2022/04/03 02:31:09;;;;;;;;;16.25;14.25;;;;;;;;5038256;28;11552;-78
2022/04/03 02:33:37;;;;;;;;;16.25;13.00;;;;;;;;5035278;28;11620;-77
2022/04/03 02:36:06;;;;;;;;;15.25;15.25;;;;;;;;5036156;28;11701;-78
2022/04/03 02:38:34;;;;;;;;;20.25;17.75;;;;;;;;5032193;28;12416;-76
2022/04/03 02:41:01;;;;;;;;;19.67;17.67;;;;;;;;5034905;28;11555;-76
2022/04/03 02:43:29;;;;;;;;;14.75;14.75;;;;;;;;5030579;28;11557;-76
2022/04/03 02:45:56;;;;;;;;;13.25;13.25;;;;;;;;5026846;28;11601;-76
2022/04/03 02:48:24;;;;;;;;;29.33;25.00;;;;;;;;5039775;28;11613;-77
2022/04/03 02:50:51;;;;;;;;;18.33;17.33;;;;;;;;5035778;28;9618;-77
2022/04/03 02:53:20;;;;;;;;;17.33;13.33;;;;;;;;5034692;28;12049;-77
2022/04/03 02:55:47;;;;;;;;;14.25;14.25;;;;;;;;5025770;28;11564;-77
2022/04/03 02:58:15;;;;;;;;;14.25;14.25;;;;;;;;5018347;28;12204;-77
2022/04/03 03:00:42;;;;;;;;;16.67;15.67;;;;;;;;5030888;28;11640;-77
2022/04/03 03:03:10;;;;;;;;;16.50;16.50;;;;;;;;5036983;28;11607;-77
2022/04/03 03:05:38;;;;;;;;;17.00;12.00;;;;;;;;5033778;28;11574;-76
2022/04/03 03:08:06;;;;;;;;;18.25;14.00;;;;;;;;5039185;28;11583;-78
2022/04/03 03:10:35;;;;;;;;;13.75;13.75;;;;;;;;5028804;28;11591;-77
2022/04/03 03:13:02;;;;;;;;;13.50;13.50;;;;;;;;5038072;28;11560;-77
2022/04/03 03:15:29;;;;;;;;;17.00;13.33;;;;;;;;5033693;28;11581;-77
2022/04/03 03:17:57;;;;;;;;;13.25;13.25;;;;;;;;5039483;28;11563;-77
2022/04/03 03:20:24;;;;;;;;;14.25;14.25;;;;;;;;5040773;28;11697;-77
2022/04/03 03:22:51;;;;;;;;;13.00;13.00;;;;;;;;5035438;28;12333;-76
2022/04/03 03:25:19;;;;;;;;;13.33;11.33;;;;;;;;5039885;28;11662;-77
2022/04/03 03:27:48;;;;;;;;;11.33;11.33;;;;;;;;5036791;28;11601;-77
2022/04/03 03:30:15;;;;;;;;;9.33;9.00;;;;;;;;5034216;28;11686;-76
2022/04/03 03:32:43;;;;;;;;;13.67;13.67;;;;;;;;5039971;28;11523;-76
2022/04/03 03:35:11;;;;;;;;;16.67;15.33;;;;;;;;5041140;28;11560;-78
2022/04/03 03:37:38;;;;;;;;;13.00;13.00;;;;;;;;5039646;28;11594;-77
2022/04/03 03:40:11;;;;;;;;;11.33;11.33;;;;;;;;5033236;28;9002;-77
2022/04/03 03:42:39;;;;;;;;;14.33;14.33;;;;;;;;5039795;28;11563;-77
2022/04/03 03:45:10;;;;;;;;;22.00;17.67;;;;;;;;5042246;28;12449;-77
2022/04/03 03:47:37;;;;;;;;;23.67;19.33;;;;;;;;5031727;28;8942;-77
2022/04/03 03:50:05;;;;;;;;;11.67;11.67;;;;;;;;5041597;28;8874;-77
2022/04/03 03:52:32;;;;;;;;;9.00;9.00;;;;;;;;5037773;28;8978;-77
2022/04/03 03:54:59;;;;;;;;;16.00;16.00;;;;;;;;5041772;28;11502;-77
2022/04/03 03:57:26;;;;;;;;;12.00;12.00;;;;;;;;5042024;28;8847;-77
2022/04/03 03:59:54;;;;;;;;;16.33;14.33;;;;;;;;5035655;28;9314;-77
2022/04/03 04:02:25;;;;;;;;;19.00;16.00;;;;;;;;5038076;28;8819;-76
2022/04/03 04:04:52;;;;;;;;;20.00;15.67;;;;;;;;5038381;28;8957;-76
2022/04/03 04:07:20;;;;;;;;;10.33;10.33;;;;;;;;5038020;28;9664;-76
2022/04/03 04:09:47;;;;;;;;;10.33;10.33;;;;;;;;5035232;28;8855;-76
2022/04/03 04:12:14;;;;;;;;;12.67;11.67;;;;;;;;5036812;28;9656;-77
2022/04/03 04:14:42;;;;;;;;;11.00;10.33;;;;;;;;5037788;28;8967;-76
2022/04/03 04:17:09;;;;;;;;;12.67;12.67;;;;;;;;5034644;28;8905;-77
2022/04/03 04:19:39;;;;;;;;;12.33;12.33;;;;;;;;5038832;28;9609;-76
2022/04/03 04:22:06;;;;;;;;;17.00;15.33;;;;;;;;5028431;28;9638;-77
2022/04/03 04:24:33;;;;;;;;;12.00;12.00;;;;;;;;5037618;28;8877;-77
2022/04/03 04:27:01;;;;;;;;;13.00;11.33;;;;;;;;5036006;28;8882;-78
2022/04/03 04:29:28;;;;;;;;;19.33;17.67;;;;;;;;5036536;28;8855;-76
2022/04/03 04:31:55;;;;;;;;;16.00;15.00;;;;;;;;5037595;28;8795;-78
2022/04/03 04:34:22;;;;;;;;;13.00;13.00;;;;;;;;5040528;28;8899;-77
2022/04/03 04:36:51;;;;;;;;;13.67;13.67;;;;;;;;5037392;28;8881;-76
2022/04/03 04:39:18;;;;;;;;;15.67;14.00;;;;;;;;5037177;28;8878;-76
2022/04/03 04:41:45;;;;;;;;;20.00;16.67;;;;;;;;5041319;28;8959;-76
2022/04/03 04:44:13;;;;;;;;;11.67;11.67;;;;;;;;5040460;28;8907;-76
2022/04/03 04:46:40;;;;;;;;;5.33;5.33;;;;;;;;5039318;28;8880;-76
2022/04/03 04:49:08;;;;;;;;;14.00;12.33;;;;;;;;5040537;28;8889;-77
2022/04/03 04:51:36;;;;;;;;;13.33;12.67;;;;;;;;5036373;28;8936;-76
2022/04/03 04:54:05;;;;;;;;;13.00;11.00;;;;;;;;5036253;28;8904;-76
2022/04/03 04:56:33;;;;;;;;;16.67;16.67;;;;;;;;5038076;28;8866;-77
2022/04/03 04:59:02;;;;;;;;;12.33;12.33;;;;;;;;5036921;28;8913;-77
2022/04/03 05:01:29;;;;;;;;;18.00;13.67;;;;;;;;5047924;28;8819;-77
2022/04/03 05:03:56;;;;;;;;;18.33;15.67;;;;;;;;5057127;28;8855;-76
2022/04/03 05:06:26;;;;;;;;;12.33;11.00;;;;;;;;5060787;28;8882;-77
2022/04/03 05:08:53;;;;;;;;;8.00;8.00;;;;;;;;5062007;28;8883;-78
2022/04/03 05:11:23;;;;;;;;;12.33;9.67;;;;;;;;5062692;28;8880;-76
2022/04/03 05:13:51;;;;;;;;;12.67;12.00;;;;;;;;5054103;28;8870;-76
2022/04/03 05:16:19;;;;;;;;;15.67;15.67;;;;;;;;5046895;28;8869;-75
2022/04/03 05:18:48;;;;;;;;;14.33;13.00;;;;;;;;5051338;28;9640;-81
2022/04/03 05:21:15;;;;;;;;;14.33;12.67;;;;;;;;5071849;28;8990;-76
2022/04/03 05:23:43;;;;;;;;;15.00;15.00;;;;;;;;5061294;28;8986;-78
2022/04/03 05:26:11;;;;;;;;;15.00;12.33;;;;;;;;5064075;28;8908;-79
2022/04/03 05:28:41;;;;;;;;;14.00;12.67;;;;;;;;5063634;28;8874;-77
2022/04/03 05:31:08;;;;;;;;;12.00;12.00;;;;;;;;5054770;28;8787;-76
2022/04/03 05:33:36;;;;;;;;;13.33;11.33;;;;;;;;5043388;28;8914;-75
2022/04/03 05:36:03;;;;;;;;;20.33;9.00;;;;;;;;5039107;28;8875;-76
2022/04/03 05:38:31;;;;;;;;;13.00;11.33;;;;;;;;5033448;28;8895;-80
2022/04/03 05:40:58;;;;;;;;;14.67;14.67;;;;;;;;5033296;28;9646;-77
2022/04/03 05:43:26;;;;;;;;;15.00;13.33;;;;;;;;5040099;28;8871;-77
2022/04/03 05:45:55;;;;;;;;;11.00;11.00;;;;;;;;5041395;28;8878;-76
2022/04/03 05:48:23;;;;;;;;;13.33;13.33;;;;;;;;5041872;28;8878;-77
2022/04/03 05:50:51;;;;;;;;;12.67;12.67;;;;;;;;5042125;28;8863;-76
2022/04/03 05:53:18;;;;;;;;;12.00;12.00;;;;;;;;5038000;28;9257;-76
2022/04/03 05:55:45;;;;;;;;;17.33;10.33;;;;;;;;5033053;28;8861;-77
2022/04/03 05:58:13;;;;;;;;;12.67;12.00;;;;;;;;5043224;28;8878;-83
2022/04/03 06:00:41;;;;;;;;;15.00;11.67;;;;;;;;5043113;28;8802;-80
2022/04/03 06:03:10;;;;;;;;;15.33;12.67;;;;;;;;5027278;28;8891;-77
2022/04/03 06:05:38;;;;;;;;;21.00;21.00;;;;;;;;5041766;28;8867;-77
2022/04/03 06:08:06;;;;;;;;;14.33;14.33;;;;;;;;5041648;28;8851;-79
2022/04/03 06:10:35;;;;;;;;;11.67;11.67;;;;;;;;5036037;28;8855;-82
2022/04/03 06:13:03;;;;;;;;;15.00;15.00;;;;;;;;5034173;28;8884;-78
2022/04/03 06:15:33;;;;;;;;;18.33;16.00;;;;;;;;5034434;28;8879;-77
2022/04/03 06:18:01;;;;;;;;;22.67;20.33;;;;;;;;5039880;28;8867;-76
2022/04/03 06:20:30;;;;;;;;;18.33;17.67;;;;;;;;5042179;28;8866;-80
2022/04/03 06:22:59;;;;;;;;;16.00;16.00;;;;;;;;5036735;28;8866;-77
2022/04/03 06:25:26;;;;;;;;;32.33;30.67;;;;;;;;5037344;28;8849;-77
2022/04/03 06:27:54;;;;;;;;;19.33;17.33;;;;;;;;5030809;28;8874;-76
2022/04/03 06:30:23;;;;;;;;;28.00;22.67;;;;;;;;5031044;28;8874;-87
2022/04/03 06:32:50;;;;;;;;;21.67;18.00;;;;;;;;5042613;28;8859;-81
2022/04/03 06:35:17;;;;;;;;;20.33;18.00;;;;;;;;5032768;28;8913;-85
2022/04/03 06:37:46;;;;;;;;;16.00;16.00;;;;;;;;5067363;28;8888;-80
2022/04/03 06:40:16;;;;;;;;;10.33;8.33;;;;;;;;5035060;28;8875;-84
2022/04/03 06:42:44;;;;;;;;;20.33;18.33;;;;;;;;5059892;28;8924;-80
2022/04/03 06:45:12;;;;;;;;;16.33;12.00;;;;;;;;5035524;28;8875;-81
2022/04/03 06:47:39;;;;;;;;;14.33;14.33;;;;;;;;5041184;28;8879;-79
2022/04/03 06:50:08;;;;;;;;;18.33;16.00;;;;;;;;5040987;28;8859;-77
2022/04/03 06:52:36;;;;;;;;;20.33;18.33;;;;;;;;5036079;28;8886;-78
2022/04/03 06:55:05;;;;;;;;;22.67;22.67;;;;;;;;5033702;28;8866;-77
2022/04/03 06:57:33;;;;;;;;;27.33;23.00;;;;;;;;5031693;28;8895;-77
2022/04/03 07:00:00;;;;;;;;;22.33;22.00;;;;;;;;5033150;28;8870;-77
2022/04/03 07:02:27;;;;;;;;;18.00;16.00;;;;;;;;5032910;28;8834;-80
2022/04/03 07:04:56;;;;;;;;;25.00;22.00;;;;;;;;5034545;28;8877;-81
2022/04/03 07:07:25;;;;;;;;;24.33;21.67;;;;;;;;5036053;28;8875;-73
2022/04/03 07:09:54;;;;;;;;;15.00;15.00;;;;;;;;5035223;28;8878;-72
2022/04/03 07:12:23;;;;;;;;;13.33;13.33;;;;;;;;5033886;28;8940;-75
2022/04/03 07:14:51;;;;;;;;;22.67;20.00;;;;;;;;5034070;28;8941;-72
2022/04/03 07:17:18;;;;;;;;;17.00;16.00;;;;;;;;5033222;28;8859;-79
2022/04/03 07:19:46;;;;;;;;;16.67;16.67;;;;;;;;5036770;28;8873;-73
2022/04/03 07:22:13;;;;;;;;;8.67;8.67;;;;;;;;5032356;28;8875;-71
2022/04/03 07:24:41;;;;;;;;;19.67;19.00;;;;;;;;5036454;28;8877;-72
2022/04/03 07:27:08;;;;;;;;;12.00;11.00;;;;;;;;5041967;28;8863;-75
2022/04/03 07:29:37;;;;;;;;;15.00;12.00;;;;;;;;5036502;28;8931;-75
2022/04/03 07:32:05;;;;;;;;;18.33;12.33;;;;;;;;5033137;28;8828;-81
2022/04/03 07:34:33;;;;;;;;;13.67;13.67;;;;;;;;5039234;28;8883;-72
2022/04/03 07:37:00;;;;;;;;;15.33;13.00;;;;;;;;5038458;28;8955;-74
2022/04/03 07:39:28;;;;;;;;;21.67;20.00;;;;;;;;5041593;28;8918;-73
2022/04/03 07:41:55;;;;;;;;;16.00;13.00;;;;;;;;5037292;28;8887;-77
2022/04/03 07:44:22;;;;;;;;;11.67;10.00;;;;;;;;5038799;28;11600;-76
2022/04/03 07:46:51;;;;;;;;;12.00;12.00;;;;;;;;5041432;28;8925;-77
2022/04/03 07:49:18;;;;;;;;;13.67;13.67;;;;;;;;5043495;28;11587;-72
2022/04/03 07:51:46;;;;;;;;;13.33;12.67;;;;;;;;5036154;28;11544;-79
2022/04/03 07:54:14;;;;;;;;;12.67;10.00;;;;;;;;5040837;28;11584;-77
2022/04/03 07:56:41;;;;;;;;;13.33;13.33;;;;;;;;5040499;28;11607;-88
2022/04/03 07:59:09;;;;;;;;;13.50;13.50;;;;;;;;5042239;28;11598;-76
2022/04/03 08:01:36;;;;;;;;;13.75;13.25;;;;;;;;5041846;28;11641;-76
2022/04/03 08:04:05;;;;;;;;;14.25;14.25;;;;;;;;5030931;28;11592;-73
2022/04/03 08:06:32;;;;;;;;;9.75;6.75;;;;;;;;5036288;28;11620;-73
2022/04/03 08:09:00;;;;;;;;;9.75;9.75;;;;;;;;5033716;28;11561;-85
2022/04/03 08:11:27;;;;;;;;;11.25;9.25;;;;;;;;5044529;28;11667;-74
2022/04/03 08:13:55;;;;;;;;;6.50;6.50;;;;;;;;5043345;28;11566;-89
2022/04/03 08:16:22;;;;;;;;;14.00;11.00;;;;;;;;5042386;28;11609;-76
2022/04/03 08:18:49;;;;;;;;;12.50;10.00;;;;;;;;5040664;28;11553;-76
2022/04/03 08:21:19;;;;;;;;;6.00;6.00;;;;;;;;5041519;28;11699;-73
2022/04/03 08:23:47;;;;;;;;;9.00;9.00;;;;;;;;5039916;28;11548;-80
2022/04/03 08:26:14;;;;;;;;;6.00;6.00;;;;;;;;5042388;28;11536;-83
2022/04/03 08:28:42;;;;;;;;;9.00;9.00;;;;;;;;5031426;28;11530;-78
2022/04/03 08:31:09;;;;;;;;;7.00;5.50;;;;;;;;5043651;28;11486;-78
2022/04/03 08:33:36;;;;;;;;;11.50;6.00;;;;;;;;5027749;28;11558;-76
2022/04/03 08:36:04;;;;;;;;;6.50;6.50;;;;;;;;5063821;28;11522;-80
2022/04/03 08:38:33;;;;;;;;;5.25;5.25;;;;;;;;5028183;28;11552;-77
2022/04/03 08:41:01;;;;;;;;;6.00;6.00;;;;;;;;5037733;28;11537;-77
2022/04/03 08:43:31;;;;;;;;;2.00;2.00;;;;;;;;5033706;28;11525;-75
2022/04/03 08:45:58;;;;;;;;;2.75;2.75;;;;;;;;5040388;28;11666;-74
2022/04/03 08:48:29;;;;;;;;;10.50;9.00;;;;;;;;5035591;28;11557;-85
2022/04/03 08:50:56;;;;;;;;;11.00;11.00;;;;;;;;5039861;28;11606;-79
2022/04/03 08:53:24;;;;;;;;;3.00;3.00;;;;;;;;5036421;28;11595;-88
2022/04/03 08:55:52;;;;;;;;;9.00;9.00;;;;;;;;5031444;28;11567;-86
2022/04/03 08:58:20;;;;;;;;;6.75;6.75;;;;;;;;5035456;28;11540;-82
2022/04/03 09:00:48;;;;;;;;;2.00;2.00;;;;;;;;5040297;28;11457;-83
2022/04/03 09:03:15;;;;;;;;;8.00;6.50;;;;;;;;5040992;28;11568;-81
2022/04/03 09:05:44;;;;;;;;;5.75;2.75;;;;;;;;5035454;28;11559;-90
2022/04/03 09:08:13;;;;;;;;;1.75;1.75;;;;;;;;5035769;28;12366;-81
2022/04/03 09:10:42;;;;;;;;;1.75;1.75;;;;;;;;5035232;28;11497;-82
2022/04/03 09:13:11;;;;;;;;;2.25;2.25;;;;;;;;5041612;28;11545;-83
2022/04/03 09:15:39;;;;;;;;;1.50;1.50;;;;;;;;5039707;28;11640;-86
2022/04/03 09:18:08;;;;;;;;;5.00;5.00;;;;;;;;5036849;28;11494;-85
2022/04/03 09:20:37;;;;;;;;;2.75;2.75;;;;;;;;5036016;28;11461;-86
2022/04/03 09:23:06;;;;;;;;;1.25;1.25;;;;;;;;5042084;28;11606;-88
2022/04/03 09:25:35;;;;;;;;;1.00;1.00;;;;;;;;5041744;28;11585;-83
2022/04/03 09:28:04;;;;;;;;;2.50;2.50;;;;;;;;5028499;28;12216;-77
2022/04/03 09:30:35;;;;;;;;;4.50;4.00;;;;;;;;5035339;28;11433;-80
2022/04/03 09:33:02;;;;;;;;;1.00;1.00;;;;;;;;5037494;28;11476;-80
2022/04/03 09:35:31;;;;;;;;;5.00;5.00;;;;;;;;5037251;28;11460;-77
2022/04/03 09:38:13;;;;;;;;;2.00;2.00;;;;;;;;5035041;28;11611;-81
2022/04/03 09:40:41;;;;;;;;;3.00;1.00;;;;;;;;5037693;28;11465;-80
2022/04/03 09:43:20;;;;;;;;;3.50;1.50;;;;;;;;5039992;28;11053;-84
2022/04/03 09:45:51;;;;;;;;;1.00;1.00;;;;;;;;5040617;28;11184;-76
2022/04/03 09:48:20;;;;;;;;;2.00;2.00;;;;;;;;5035625;28;11706;-82
2022/04/03 09:51:06;;;;;;;;;3.00;3.00;;;;;;;;5041638;28;11203;-85
2022/04/03 09:53:47;;;;;;;;;2.75;2.75;;;;;;;;5034921;28;11249;-81
2022/04/03 09:56:16;;;;;;;;;1.00;1.00;;;;;;;;5034792;28;11149;-79
2022/04/03 09:58:59;;;;;;;;;2.00;2.00;;;;;;;;5035407;28;11036;-81
2022/04/03 10:01:30;;;;;;;;;1.00;1.00;;;;;;;;5038255;28;11081;-77
2022/04/03 10:03:58;;;;;;;;;1.00;1.00;;;;;;;;5030983;28;10933;-77
2022/04/03 10:06:25;;;;;;;;;1.00;1.00;;;;;;;;5033762;28;11069;-83
2022/04/03 10:08:53;;;;;;;;;2.75;1.75;;;;;;;;5033384;28;11059;-76
2022/04/03 10:11:21;;;;;;;;;2.25;2.25;;;;;;;;5039204;28;11000;-79
2022/04/03 10:13:49;;;;;;;;;2.00;2.00;;;;;;;;5037214;28;11075;-80
2022/04/03 10:16:18;;;;;;;;;1.50;1.50;;;;;;;;5043066;28;11147;-77
2022/04/03 10:18:47;;;;;;;;;2.00;2.00;;;;;;;;5037668;28;10994;-78
2022/04/03 10:21:19;;;;;;;;;2.00;2.00;;;;;;;;5035461;28;10783;-76
2022/04/03 10:23:48;;;;;;;;;2.00;2.00;;;;;;;;5036025;28;10924;-82
2022/04/03 10:26:18;;;;;;;;;4.00;2.00;;;;;;;;5043035;28;10907;-74
2022/04/03 10:28:50;;;;;;;;;5.75;5.75;;;;;;;;5045276;28;11906;-78
2022/04/03 10:31:18;;;;;;;;;21.75;19.75;;;;;;;;5038618;28;11474;-75
2022/04/03 10:33:50;;;;;;;;;27.25;27.25;;;;;;;;5039791;28;11564;-74
2022/04/03 10:36:27;;;;;;;;;23.50;21.75;;;;;;;;5034908;28;11625;-78
2022/04/03 10:39:00;;;;;;;;;14.25;12.75;;;;;;;;5035168;28;11573;-77
2022/04/03 10:41:30;;;;;;;;;7.00;5.50;;;;;;;;5035797;28;11462;-81
2022/04/03 10:44:14;;;;;;;;;6.00;6.00;;;;;;;;5036211;28;10902;-77
2022/04/03 10:47:18;;;;;;;;;10.75;9.00;;;;;;;;5035066;28;11529;-85
2022/04/03 10:49:51;;;;;;;;;9.00;9.00;;;;;;;;5036630;28;11459;-76
2022/04/03 10:52:26;;;;;;;;;13.25;13.25;;;;;;;;5034623;28;11448;-83
2022/04/03 10:54:54;;;;;;;;;15.50;13.50;;;;;;;;5032960;28;11605;-79
2022/04/03 10:57:35;;;;;;;;;17.50;17.50;;;;;;;;5029625;28;11488;-76
2022/04/03 11:00:33;;;;;;;;;20.00;20.00;;;;;;;;5040543;28;11560;-77
2022/04/03 11:03:02;;;;;;;;;12.25;12.25;;;;;;;;5055751;28;12132;-81
2022/04/03 11:05:46;;;;;;;;;7.25;7.25;;;;;;;;5057410;28;11622;-86
2022/04/03 11:08:20;;;;;;;;;3.50;3.50;;;;;;;;5074182;28;11450;-78
2022/04/03 11:10:49;;;;;;;;;1.00;1.00;;;;;;;;5060714;28;10978;-75
2022/04/03 11:13:17;;;;;;;;;1.75;1.75;;;;;;;;5055853;28;10625;-78
2022/04/03 11:15:50;;;;;;;;;5.50;2.00;;;;;;;;5062299;28;10425;-80
2022/04/03 11:18:28;;;;;;;;;2.50;1.00;;;;;;;;5058599;28;10311;-82
2022/04/03 11:21:11;;;;;;;;;2.00;2.00;;;;;;;;5059924;28;10152;-78
2022/04/03 11:23:40;;;;;;;;;6.75;6.75;;;;;;;;5055938;28;10287;-82
2022/04/03 11:26:07;;;;;;;;;4.00;4.00;;;;;;;;5058821;28;10385;-79
2022/04/03 11:28:36;;;;;;;;;7.00;5.50;;;;;;;;5057176;28;10433;-84
2022/04/03 11:31:05;;;;;;;;;3.25;3.25;;;;;;;;5051895;28;10278;-81
2022/04/03 11:36:21;;;;;;;;;2.25;2.00;;;;;;;;5045164;28;10563;-81
2022/04/03 11:38:50;;;;;;;;;4.00;2.75;;;;;;;;5035882;28;10258;-80
2022/04/03 11:41:20;;;;;;;;;8.00;6.25;;;;;;;;5038735;28;11610;-81
2022/04/03 11:43:57;;;;;;;;;3.50;3.50;;;;;;;;5038023;28;10410;-84
2022/04/03 11:46:25;;;;;;;;;3.00;1.75;;;;;;;;5038984;28;10266;-87
2022/04/03 11:48:52;;;;;;;;;2.25;2.25;;;;;;;;5036485;28;10299;-85
2022/04/03 11:51:22;;;;;;;;;6.75;4.00;;;;;;;;5027091;28;11096;-82
2022/04/03 11:53:56;;;;;;;;;4.00;4.00;;;;;;;;5025755;28;10540;-80
2022/04/03 11:56:23;;;;;;;;;2.00;2.00;;;;;;;;5033972;28;10316;-84
2022/04/03 11:58:55;;;;;;;;;3.00;3.00;;;;;;;;5030239;28;10786;-89
2022/04/03 12:01:26;;;;;;;;;3.00;3.00;;;;;;;;5038455;28;10210;-81
2022/04/03 12:04:00;;;;;;;;;2.00;2.00;;;;;;;;5041323;28;10161;-83
2022/04/03 12:06:31;;;;;;;;;3.00;3.00;;;;;;;;5031468;28;10124;-84
2022/04/03 12:08:59;;;;;;;;;3.25;3.25;;;;;;;;5040791;28;10081;-82
2022/04/03 12:11:27;;;;;;;;;4.00;4.00;;;;;;;;5031820;28;10285;-79
2022/04/03 12:13:57;;;;;;;;;3.00;3.00;;;;;;;;5027368;28;10015;-79
2022/04/03 12:16:25;;;;;;;;;4.50;3.50;;;;;;;;5031328;28;9945;-83
2022/04/03 12:18:57;;;;;;;;;3.50;3.25;;;;;;;;5030733;28;9954;-83
2022/04/03 12:21:40;;;;;;;;;2.50;2.50;;;;;;;;5038215;28;9995;-89
2022/04/03 12:24:10;;;;;;;;;7.00;2.50;;;;;;;;5035411;28;10573;-82
2022/04/03 12:26:39;;;;;;;;;3.00;3.00;;;;;;;;5030341;28;9715;-83
2022/04/03 12:29:07;;;;;;;;;4.75;4.75;;;;;;;;5038635;28;9895;-84
2022/04/03 12:31:35;;;;;;;;;7.50;5.50;;;;;;;;5036754;28;9969;-82
2022/04/03 12:34:11;;;;;;;;;12.50;9.00;;;;;;;;5030717;28;10274;-85
2022/04/03 12:36:42;;;;;;;;;4.00;4.00;;;;;;;;5035480;28;10347;-81
2022/04/03 12:39:29;;;;;;;;;4.00;4.00;;;;;;;;5024862;28;10138;-86
2022/04/03 12:42:10;;;;;;;;;4.00;4.00;;;;;;;;5033748;28;10306;-82
2022/04/03 12:44:52;;;;;;;;;9.75;7.75;;;;;;;;5037206;28;10030;-80
2022/04/03 12:47:21;;;;;;;;;7.00;7.00;;;;;;;;5031083;28;10145;-78
2022/04/03 12:49:50;;;;;;;;;9.00;7.00;;;;;;;;5032695;28;10161;-79
2022/04/03 12:52:39;;;;;;;;;4.00;4.00;;;;;;;;5036971;28;10032;-81
2022/04/03 12:55:07;;;;;;;;;8.00;8.00;;;;;;;;5036521;28;9796;-85
2022/04/03 13:00:20;;;;;;;;;4.50;4.50;;;;;;;;5030802;28;10017;-82
2022/04/03 13:02:50;;;;;;;;;3.75;3.75;;;;;;;;5034035;28;10053;-79
2022/04/03 13:05:17;;;;;;;;;4.75;3.75;;;;;;;;5033146;28;9975;-85
2022/04/03 13:07:47;;;;;;;;;3.50;3.50;;;;;;;;5033698;28;10675;-82
2022/04/03 13:10:18;;;;;;;;;10.00;9.00;;;;;;;;5043567;28;9974;-80
2022/04/03 13:12:49;;;;;;;;;4.00;4.00;;;;;;;;5042559;28;9897;-84
2022/04/03 13:15:17;;;;;;;;;3.00;3.00;;;;;;;;5042055;28;9781;-86
2022/04/03 13:17:44;;;;;;;;;7.00;4.50;;;;;;;;5037429;28;9563;-81
2022/04/03 13:20:12;;;;;;;;;10.25;10.25;;;;;;;;5036079;28;9614;-81
2022/04/03 13:22:40;;;;;;;;;4.00;4.00;;;;;;;;5038861;28;9851;-77
2022/04/03 13:25:09;;;;;;;;;4.00;4.00;;;;;;;;5033870;28;11496;-78
2022/04/03 13:27:37;;;;;;;;;4.50;3.00;;;;;;;;5037329;28;9712;-77
2022/04/03 13:30:04;;;;;;;;;3.00;3.00;;;;;;;;5037005;28;9664;-80
2022/04/03 13:32:32;;;;;;;;;3.50;3.50;;;;;;;;5037752;28;9726;-80
2022/04/03 13:35:00;;;;;;;;;3.00;3.00;;;;;;;;5032001;28;9817;-84
2022/04/03 13:37:27;;;;;;;;;5.00;5.00;;;;;;;;5038939;28;9772;-79
2022/04/03 13:39:55;;;;;;;;;5.00;5.00;;;;;;;;5041428;28;9878;-78
2022/04/03 13:42:23;;;;;;;;;5.00;3.00;;;;;;;;5037764;28;9719;-80
2022/04/03 13:44:51;;;;;;;;;5.25;5.25;;;;;;;;5041029;28;9644;-80
2022/04/03 13:47:18;;;;;;;;;4.00;4.00;;;;;;;;5026551;28;9947;-79
2022/04/03 13:49:46;;;;;;;;;5.25;3.00;;;;;;;;5041727;28;9969;-82
2022/04/03 13:52:13;;;;;;;;;2.00;2.00;;;;;;;;5042991;28;9806;-83
2022/04/03 13:54:41;;;;;;;;;2.25;2.25;;;;;;;;5044273;28;9779;-81
2022/04/03 13:57:08;;;;;;;;;4.00;4.00;;;;;;;;5036033;28;9838;-89
2022/04/03 13:59:37;;;;;;;;;4.00;4.00;;;;;;;;5036943;28;9617;-80
2022/04/03 14:02:05;;;;;;;;;4.00;4.00;;;;;;;;5032220;28;9504;-85
2022/04/03 14:04:33;;;;;;;;;4.00;4.00;;;;;;;;5033257;28;9627;-83
2022/04/03 14:07:00;;;;;;;;;9.25;9.25;;;;;;;;5036715;28;9874;-84
2022/04/03 14:09:27;;;;;;;;;5.75;3.50;;;;;;;;5040174;28;9777;-78
2022/04/03 14:11:55;;;;;;;;;6.50;4.00;;;;;;;;5044360;28;10426;-81
2022/04/03 14:14:22;;;;;;;;;4.00;4.00;;;;;;;;5041695;28;9752;-80
2022/04/03 14:16:52;;;;;;;;;4.50;4.50;;;;;;;;5038951;28;9948;-83
2022/04/03 14:19:20;;;;;;;;;4.00;4.00;;;;;;;;5032338;28;10033;-80
2022/04/03 14:21:48;;;;;;;;;6.00;6.00;;;;;;;;5036597;28;10277;-84
2022/04/03 14:24:15;;;;;;;;;4.75;4.00;;;;;;;;5039454;28;10203;-85
2022/04/03 14:26:45;;;;;;;;;8.00;8.00;;;;;;;;5033756;28;11002;-82
2022/04/03 14:29:12;;;;;;;;;6.00;6.00;;;;;;;;5032474;28;10404;-82
2022/04/03 14:31:40;;;;;;;;;8.00;6.00;;;;;;;;5031853;28;10200;-81
2022/04/03 14:34:09;;;;;;;;;7.00;6.25;;;;;;;;5034245;28;10313;-84
2022/04/03 14:36:36;;;;;;;;;7.00;7.00;;;;;;;;5038148;28;10253;-82
2022/04/03 14:39:04;;;;;;;;;7.25;7.25;;;;;;;;5039398;28;10460;-81
2022/04/03 14:41:34;;;;;;;;;8.00;6.50;;;;;;;;5039111;28;11207;-81
2022/04/03 14:44:02;;;;;;;;;9.50;9.50;;;;;;;;5031195;28;10413;-80
2022/04/03 14:46:30;;;;;;;;;7.75;7.75;;;;;;;;5032799;28;10562;-78
2022/04/03 14:48:57;;;;;;;;;9.00;9.00;;;;;;;;5036786;28;10827;-82